Time;durP1;ratioP1;P1;durP2;ratioP2;P2;SDS_P1;SDS_P2;PMS_P1;PMS_P2;Temp;Humidity;BMP_temperature;BMP_pressure;BME280_temperature;BME280_humidity;BME280_pressure;Samples;Min_cycle;Max_cycle;Signal;HPM_P1;HPM_P2
2024/01/20 00:02:14;;;;;;;24.00;10.03;;;-3.00;99.90;;;;;;5095725;28;20499;-49
2024/01/20 00:04:42;;;;;;;24.70;10.50;;;-3.00;99.90;;;;;;5078330;28;20231;-49
2024/01/20 00:07:08;;;;;;;22.70;11.80;;;-3.00;99.90;;;;;;5096787;28;20560;-48
2024/01/20 00:09:35;;;;;;;23.37;11.23;;;-3.00;99.90;;;;;;5095102;28;20457;-49
2024/01/20 00:12:04;;;;;;;16.50;9.00;;;-3.10;99.90;;;;;;5096855;28;20613;-45
2024/01/20 00:14:30;;;;;;;20.20;10.10;;;-3.20;99.90;;;;;;5095970;28;20429;-45
2024/01/20 00:16:55;;;;;;;17.97;9.97;;;-3.20;99.90;;;;;;5096588;28;20559;-46
2024/01/20 00:19:21;;;;;;;20.83;9.57;;;-3.20;99.90;;;;;;5096991;28;20615;-45
2024/01/20 00:21:47;;;;;;;21.53;10.93;;;-3.30;99.90;;;;;;5095559;28;20716;-43
2024/01/20 00:24:13;;;;;;;22.20;10.87;;;-3.30;99.90;;;;;;5095229;28;20183;-44
2024/01/20 00:26:39;;;;;;;26.07;11.53;;;-3.40;99.90;;;;;;5096267;28;20698;-44
2024/01/20 00:29:09;;;;;;;24.67;12.10;;;-3.40;99.90;;;;;;5077920;28;20472;-43
2024/01/20 00:31:37;;;;;;;22.50;10.10;;;-3.50;99.90;;;;;;5077727;28;20193;-44
2024/01/20 00:34:04;;;;;;;25.87;11.27;;;-3.60;99.90;;;;;;5096109;28;20429;-43
2024/01/20 00:36:31;;;;;;;20.73;10.53;;;-3.60;99.90;;;;;;5094776;28;20456;-42
2024/01/20 00:39:00;;;;;;;21.60;10.07;;;-3.70;99.90;;;;;;5095192;28;20433;-43
2024/01/20 00:41:37;;;;;;;22.10;11.33;;;-3.70;99.90;;;;;;5094843;28;20425;-43
2024/01/20 00:44:04;;;;;;;23.83;11.40;;;-3.80;99.90;;;;;;5096195;28;20447;-45
2024/01/20 00:46:30;;;;;;;24.67;10.80;;;-3.80;99.90;;;;;;5095502;28;20448;-44
2024/01/20 00:48:58;;;;;;;22.37;10.80;;;-3.80;99.90;;;;;;5094592;28;20736;-45
2024/01/20 00:51:23;;;;;;;24.20;11.57;;;-3.90;99.90;;;;;;5095661;28;20508;-44
2024/01/20 00:53:52;;;;;;;23.93;10.90;;;-3.90;99.90;;;;;;5095632;28;20452;-44
2024/01/20 00:56:18;;;;;;;20.50;10.27;;;-3.90;99.90;;;;;;5095782;28;20276;-44
2024/01/20 00:58:43;;;;;;;25.53;10.13;;;-4.00;99.90;;;;;;5094374;28;20936;-45
2024/01/20 01:01:09;;;;;;;19.33;10.43;;;-4.10;99.90;;;;;;5095477;28;20217;-43
2024/01/20 01:03:36;;;;;;;24.57;10.90;;;-4.10;99.90;;;;;;5094312;28;20204;-44
2024/01/20 01:06:02;;;;;;;20.17;10.07;;;-4.10;99.90;;;;;;5093315;28;20215;-44
2024/01/20 01:08:28;;;;;;;22.50;10.43;;;-4.20;99.90;;;;;;5094313;28;20522;-43
2024/01/20 01:10:54;;;;;;;19.73;9.77;;;-4.20;99.90;;;;;;5095286;28;20409;-45
2024/01/20 01:13:23;;;;;;;24.77;10.33;;;-4.20;99.90;;;;;;5092153;28;20195;-44
2024/01/20 01:15:49;;;;;;;18.40;9.90;;;-4.30;99.90;;;;;;5095437;28;20433;-49
2024/01/20 01:18:16;;;;;;;24.77;11.67;;;-4.30;99.90;;;;;;5094437;28;20413;-49
2024/01/20 01:20:41;;;;;;;22.97;10.87;;;-4.40;99.90;;;;;;5095119;28;20181;-49
2024/01/20 01:23:07;;;;;;;22.47;11.90;;;-4.40;99.90;;;;;;5095079;28;20504;-49
2024/01/20 01:25:33;;;;;;;18.43;9.30;;;-4.50;99.90;;;;;;5094992;28;20226;-50
2024/01/20 01:28:00;;;;;;;21.83;10.10;;;-4.60;99.90;;;;;;5094105;28;20198;-41
2024/01/20 01:30:26;;;;;;;21.60;10.40;;;-4.60;99.90;;;;;;5095475;28;20212;-44
2024/01/20 01:32:55;;;;;;;20.73;10.47;;;-4.60;99.90;;;;;;5093892;28;20424;-44
2024/01/20 01:35:22;;;;;;;21.37;9.97;;;-4.70;99.90;;;;;;5095044;28;20199;-43
2024/01/20 01:37:48;;;;;;;26.03;11.23;;;-4.80;99.90;;;;;;5093519;28;20770;-44
2024/01/20 01:40:15;;;;;;;21.37;11.00;;;-4.90;99.90;;;;;;5093832;28;20446;-45
2024/01/20 01:42:40;;;;;;;21.27;10.67;;;-4.90;99.90;;;;;;5094956;28;20232;-45
2024/01/20 01:45:06;;;;;;;26.93;10.73;;;-5.00;99.90;;;;;;5094527;28;20424;-43
2024/01/20 01:47:36;;;;;;;25.27;10.50;;;-5.00;99.90;;;;;;5094926;28;20187;-46
2024/01/20 01:50:09;;;;;;;20.70;10.30;;;-5.10;99.90;;;;;;5094457;28;20601;-44
2024/01/20 01:52:35;;;;;;;31.47;11.73;;;-5.20;99.90;;;;;;5076473;28;20458;-43
2024/01/20 01:55:04;;;;;;;23.67;11.53;;;-5.20;99.90;;;;;;5093154;28;20870;-44
2024/01/20 01:57:30;;;;;;;22.73;10.70;;;-5.30;99.90;;;;;;5094618;28;20182;-44
2024/01/20 01:59:58;;;;;;;21.47;10.97;;;-5.30;99.90;;;;;;5094667;28;20429;-44
2024/01/20 02:02:25;;;;;;;19.60;9.93;;;-5.30;99.90;;;;;;5076396;28;20431;-43
2024/01/20 02:04:51;;;;;;;21.07;10.13;;;-5.30;99.90;;;;;;5093041;28;20436;-44
2024/01/20 02:07:16;;;;;;;20.43;10.73;;;-5.40;99.90;;;;;;5094143;28;20861;-45
2024/01/20 02:09:46;;;;;;;18.73;9.30;;;-5.50;99.90;;;;;;5094451;28;20207;-44
2024/01/20 02:12:14;;;;;;;24.43;11.00;;;-5.60;99.90;;;;;;5094421;28;20411;-44
2024/01/20 02:14:45;;;;;;;21.63;10.50;;;-5.70;99.90;;;;;;5094315;28;20465;-43
2024/01/20 02:17:10;;;;;;;19.50;9.60;;;-5.80;99.90;;;;;;5092812;28;20468;-43
2024/01/20 02:19:40;;;;;;;21.10;10.83;;;-5.90;99.90;;;;;;5092055;28;20448;-43
2024/01/20 02:22:16;;;;;;;22.47;10.30;;;-6.00;99.90;;;;;;5093027;28;20186;-44
2024/01/20 02:24:48;;;;;;;25.50;9.53;;;-6.00;99.90;;;;;;5092591;28;20418;-44
2024/01/20 02:27:14;;;;;;;21.00;9.93;;;-6.10;99.90;;;;;;5093011;28;21031;-43
2024/01/20 02:29:40;;;;;;;20.60;9.83;;;-6.10;99.90;;;;;;5094124;28;20554;-45
2024/01/20 02:32:07;;;;;;;21.13;10.73;;;-6.20;99.90;;;;;;5092713;28;20500;-43
2024/01/20 02:34:33;;;;;;;21.87;9.53;;;-6.20;99.90;;;;;;5093815;28;20200;-44
2024/01/20 02:37:08;;;;;;;19.60;9.90;;;-6.20;99.90;;;;;;5092462;28;20490;-44
2024/01/20 02:39:43;;;;;;;18.87;9.47;;;-6.20;99.90;;;;;;5093747;28;20441;-44
2024/01/20 02:42:13;;;;;;;22.57;10.67;;;-6.10;99.90;;;;;;5093717;28;20401;-45
2024/01/20 02:44:42;;;;;;;19.40;10.00;;;-6.10;99.90;;;;;;5093673;28;20420;-44
2024/01/20 02:47:07;;;;;;;26.97;11.33;;;-6.10;99.90;;;;;;5093561;28;20507;-44
2024/01/20 02:49:36;;;;;;;21.17;9.87;;;-6.10;99.90;;;;;;5093571;28;20532;-43
2024/01/20 02:52:05;;;;;;;21.83;10.17;;;-6.20;99.90;;;;;;5094112;28;20186;-43
2024/01/20 02:54:34;;;;;;;22.13;10.20;;;-6.30;99.90;;;;;;5093527;28;20444;-43
2024/01/20 02:56:59;;;;;;;21.50;9.90;;;-6.40;99.90;;;;;;5093473;28;20440;-44
2024/01/20 02:59:27;;;;;;;22.80;10.73;;;-6.40;99.90;;;;;;5093497;28;20905;-43
2024/01/20 03:01:53;;;;;;;20.93;10.00;;;-6.50;99.90;;;;;;5093727;28;20174;-42
2024/01/20 03:04:22;;;;;;;20.93;9.27;;;-6.60;99.90;;;;;;5092357;28;20424;-44
2024/01/20 03:06:47;;;;;;;23.73;10.63;;;-6.60;99.90;;;;;;5093483;28;20236;-43
2024/01/20 03:09:15;;;;;;;18.53;9.77;;;-6.70;99.90;;;;;;5093160;28;20460;-45
2024/01/20 03:11:42;;;;;;;22.03;10.30;;;-6.70;99.90;;;;;;5094898;28;20170;-45
2024/01/20 03:14:13;;;;;;;18.00;9.50;;;-6.70;99.90;;;;;;5092438;28;20424;-43
2024/01/20 03:16:39;;;;;;;21.00;10.20;;;-6.80;99.90;;;;;;5093563;28;20674;-44
2024/01/20 03:19:05;;;;;;;22.77;10.53;;;-6.80;99.90;;;;;;5094270;28;20443;-44
2024/01/20 03:21:31;;;;;;;18.80;9.90;;;-6.80;99.90;;;;;;5092369;28;20676;-44
2024/01/20 03:23:57;;;;;;;21.23;9.77;;;-6.90;99.90;;;;;;5093774;28;20420;-45
2024/01/20 03:26:22;;;;;;;22.90;9.93;;;-7.00;99.90;;;;;;5092717;28;20224;-45
2024/01/20 03:28:51;;;;;;;19.97;10.10;;;-7.00;99.90;;;;;;5092938;28;20222;-44
2024/01/20 03:31:40;;;;;;;20.40;10.47;;;-7.10;99.90;;;;;;5097340;28;20195;-45
2024/01/20 03:34:07;;;;;;;25.40;10.53;;;-7.10;99.90;;;;;;5099570;28;20434;-45
2024/01/20 03:36:32;;;;;;;20.73;10.53;;;-7.10;99.90;;;;;;5097308;28;20452;-45
2024/01/20 03:38:58;;;;;;;24.53;11.33;;;-7.10;99.90;;;;;;5098279;28;20423;-45
2024/01/20 03:41:27;;;;;;;23.83;11.33;;;-7.10;99.90;;;;;;5098540;28;20261;-45
2024/01/20 03:43:53;;;;;;;23.73;10.77;;;-7.10;99.90;;;;;;5098232;28;20187;-45
2024/01/20 03:46:18;;;;;;;19.40;10.03;;;-7.10;99.90;;;;;;5097546;28;20492;-43
2024/01/20 03:48:47;;;;;;;20.67;10.90;;;-7.10;99.90;;;;;;5096918;28;20318;-43
2024/01/20 03:51:26;;;;;;;21.53;10.90;;;-7.00;99.90;;;;;;5097018;28;20178;-43
2024/01/20 03:53:54;;;;;;;19.93;10.33;;;-7.00;99.90;;;;;;5097214;28;20395;-44
2024/01/20 03:56:20;;;;;;;20.50;10.60;;;-6.90;99.90;;;;;;5095927;28;20462;-43
2024/01/20 03:58:46;;;;;;;19.30;10.60;;;-6.90;99.90;;;;;;5095686;28;20427;-43
2024/01/20 04:01:14;;;;;;;21.37;9.87;;;-6.80;99.90;;;;;;5096842;28;20225;-44
2024/01/20 04:03:40;;;;;;;21.40;10.53;;;-6.70;99.90;;;;;;5095522;28;20208;-43
2024/01/20 04:06:06;;;;;;;18.33;9.50;;;-6.70;99.90;;;;;;5096402;28;20887;-43
2024/01/20 04:08:32;;;;;;;18.40;9.37;;;-6.70;99.90;;;;;;5096542;28;20250;-43
2024/01/20 04:10:57;;;;;;;21.80;10.60;;;-6.60;99.90;;;;;;5095430;28;20194;-45
2024/01/20 04:13:23;;;;;;;20.27;10.30;;;-6.60;99.90;;;;;;5097030;28;20185;-43
2024/01/20 04:15:49;;;;;;;18.97;10.03;;;-6.60;99.90;;;;;;5096783;28;20366;-43
2024/01/20 04:18:16;;;;;;;21.07;10.40;;;-6.70;99.90;;;;;;5096730;28;20207;-44
2024/01/20 04:20:42;;;;;;;20.10;9.50;;;-6.70;99.90;;;;;;5096710;28;20203;-43
2024/01/20 04:23:11;;;;;;;19.87;10.23;;;-6.70;99.90;;;;;;5096267;28;20411;-43
2024/01/20 04:25:37;;;;;;;23.60;10.73;;;-6.80;99.90;;;;;;5097264;28;20451;-43
2024/01/20 04:28:03;;;;;;;17.63;9.97;;;-6.80;99.90;;;;;;5096371;28;20809;-44
2024/01/20 04:30:31;;;;;;;23.40;10.43;;;-6.80;99.90;;;;;;5094998;28;20188;-44
2024/01/20 04:32:57;;;;;;;21.67;9.73;;;-6.90;99.90;;;;;;5095164;28;20775;-42
2024/01/20 04:35:23;;;;;;;22.23;10.17;;;-6.90;99.90;;;;;;5095076;28;20440;-44
2024/01/20 04:37:48;;;;;;;20.47;10.07;;;-6.90;99.90;;;;;;5094880;28;20205;-43
2024/01/20 04:40:14;;;;;;;19.80;9.53;;;-6.90;99.90;;;;;;5096298;28;20234;-43
2024/01/20 04:42:43;;;;;;;24.70;11.47;;;-6.90;99.90;;;;;;5094035;28;20209;-43
2024/01/20 04:45:11;;;;;;;20.70;9.73;;;-6.80;99.90;;;;;;5096042;28;20194;-43
2024/01/20 04:47:36;;;;;;;20.50;10.53;;;-6.90;99.90;;;;;;5095883;28;20422;-42
2024/01/20 04:50:02;;;;;;;20.17;9.97;;;-6.90;99.90;;;;;;5096200;28;20839;-43
2024/01/20 04:52:33;;;;;;;20.73;10.53;;;-6.90;99.90;;;;;;5095871;28;20645;-43
2024/01/20 04:54:59;;;;;;;19.63;10.10;;;-6.90;99.90;;;;;;5095603;28;20181;-43
2024/01/20 04:57:24;;;;;;;20.07;9.97;;;-6.90;99.90;;;;;;5095050;28;20414;-43
2024/01/20 04:59:50;;;;;;;18.60;9.50;;;-6.90;99.90;;;;;;5095618;28;20227;-43
2024/01/20 05:02:18;;;;;;;18.80;9.17;;;-7.00;99.90;;;;;;5095551;28;20543;-44
2024/01/20 05:04:44;;;;;;;20.30;8.97;;;-7.00;99.90;;;;;;5095441;28;20606;-43
2024/01/20 05:07:10;;;;;;;18.47;10.17;;;-7.00;99.90;;;;;;5096563;28;20439;-43
2024/01/20 05:09:36;;;;;;;22.63;10.67;;;-7.00;99.90;;;;;;5094391;28;20211;-43
2024/01/20 05:12:04;;;;;;;21.27;10.33;;;-7.10;99.90;;;;;;5095657;28;20525;-44
2024/01/20 05:14:30;;;;;;;21.17;9.50;;;-7.20;99.90;;;;;;5096091;28;20177;-43
2024/01/20 05:16:56;;;;;;;19.80;9.47;;;-7.30;99.90;;;;;;5094376;28;20436;-43
2024/01/20 05:19:22;;;;;;;19.10;9.17;;;-7.40;99.90;;;;;;5095311;28;20207;-44
2024/01/20 05:21:47;;;;;;;19.30;9.20;;;-7.40;99.90;;;;;;5095435;28;20183;-43
2024/01/20 05:24:14;;;;;;;18.07;8.63;;;-7.50;99.90;;;;;;5095193;28;20213;-43
2024/01/20 05:26:40;;;;;;;17.23;8.73;;;-7.50;99.90;;;;;;5095429;28;20665;-44
2024/01/20 05:29:09;;;;;;;15.03;8.67;;;-7.50;99.90;;;;;;5094123;28;20579;-43
2024/01/20 05:31:35;;;;;;;18.43;8.67;;;-7.40;99.90;;;;;;5095031;28;20219;-43
2024/01/20 05:34:01;;;;;;;22.47;10.10;;;-7.40;99.90;;;;;;5094036;28;20452;-45
2024/01/20 05:36:27;;;;;;;28.20;12.40;;;-7.40;99.90;;;;;;5094073;28;20470;-44
2024/01/20 05:38:53;;;;;;;25.70;13.53;;;-7.50;99.90;;;;;;5093724;28;20188;-44
2024/01/20 05:41:19;;;;;;;30.37;14.60;;;-7.50;99.90;;;;;;5094910;28;20185;-43
2024/01/20 05:43:46;;;;;;;27.40;14.33;;;-7.60;99.90;;;;;;5093759;28;20657;-44
2024/01/20 05:46:12;;;;;;;29.23;13.77;;;-7.70;99.90;;;;;;5094290;28;20592;-43
2024/01/20 05:48:39;;;;;;;25.83;13.60;;;-7.80;99.90;;;;;;5094743;28;20494;-44
2024/01/20 05:51:05;;;;;;;26.73;13.43;;;-7.90;99.90;;;;;;5093474;28;20413;-44
2024/01/20 05:53:42;;;;;;;31.50;15.93;;;-7.90;99.90;;;;;;5093958;28;20412;-44
2024/01/20 05:56:09;;;;;;;32.67;15.37;;;-8.00;99.90;;;;;;5102109;28;20211;-45
2024/01/20 05:58:34;;;;;;;34.23;15.57;;;-8.10;99.90;;;;;;5100413;28;20425;-45
2024/01/20 06:01:00;;;;;;;23.77;12.70;;;-8.20;99.90;;;;;;5095142;28;20186;-43
2024/01/20 06:03:27;;;;;;;30.97;14.73;;;-8.20;99.90;;;;;;5094769;28;20180;-44
2024/01/20 06:05:53;;;;;;;24.50;12.77;;;-8.30;99.90;;;;;;5094329;28;20243;-44
2024/01/20 06:08:18;;;;;;;25.13;13.07;;;-8.30;99.90;;;;;;5094929;28;20463;-43
2024/01/20 06:10:44;;;;;;;22.87;12.13;;;-8.40;99.90;;;;;;5093904;28;20181;-43
2024/01/20 06:13:10;;;;;;;22.20;10.77;;;-8.40;99.90;;;;;;5093228;28;20556;-42
2024/01/20 06:15:36;;;;;;;21.13;11.20;;;-8.50;99.90;;;;;;5093079;28;20435;-44
2024/01/20 06:18:03;;;;;;;18.43;10.07;;;-8.50;99.90;;;;;;5093159;28;20180;-43
2024/01/20 06:20:29;;;;;;;20.13;9.97;;;-8.60;99.90;;;;;;5094588;28;20183;-43
2024/01/20 06:23:01;;;;;;;19.80;9.60;;;-8.60;99.90;;;;;;5092910;28;20899;-43
2024/01/20 06:25:28;;;;;;;22.27;11.07;;;-8.60;99.90;;;;;;5093129;28;20207;-43
2024/01/20 06:27:55;;;;;;;20.97;9.90;;;-8.60;99.90;;;;;;5094117;28;20395;-43
2024/01/20 06:30:24;;;;;;;25.17;10.53;;;-8.70;99.90;;;;;;5094461;28;20462;-42
2024/01/20 06:32:49;;;;;;;17.57;10.00;;;-8.70;99.90;;;;;;5094351;28;20755;-43
2024/01/20 06:35:15;;;;;;;20.47;10.57;;;-8.70;99.90;;;;;;5094005;28;20447;-43
2024/01/20 06:37:44;;;;;;;20.60;10.60;;;-8.70;99.90;;;;;;5093995;28;20173;-42
2024/01/20 06:40:10;;;;;;;21.80;11.23;;;-8.80;99.90;;;;;;5094258;28;20193;-43
2024/01/20 06:42:36;;;;;;;22.90;11.50;;;-8.80;99.90;;;;;;5095224;28;20441;-43
2024/01/20 06:45:02;;;;;;;23.27;11.37;;;-8.80;99.90;;;;;;5094201;28;20531;-43
2024/01/20 06:47:29;;;;;;;21.80;11.43;;;-8.80;99.90;;;;;;5093908;28;20436;-43
2024/01/20 06:50:05;;;;;;;24.30;11.87;;;-8.90;99.90;;;;;;5092625;28;20204;-43
2024/01/20 06:52:32;;;;;;;19.70;10.43;;;-8.90;99.90;;;;;;5092557;28;20425;-44
2024/01/20 06:54:58;;;;;;;22.30;11.13;;;-9.00;99.90;;;;;;5093893;28;20811;-42
2024/01/20 06:57:24;;;;;;;16.67;9.03;;;-9.00;99.90;;;;;;5093845;28;20443;-43
2024/01/20 06:59:49;;;;;;;15.27;8.50;;;-9.10;99.90;;;;;;5093907;28;20190;-43
2024/01/20 07:02:20;;;;;;;19.90;8.83;;;-9.10;99.90;;;;;;5093986;28;20652;-43
2024/01/20 07:04:47;;;;;;;14.60;8.80;;;-9.10;99.90;;;;;;5092841;28;20678;-43
2024/01/20 07:07:13;;;;;;;13.77;8.10;;;-9.10;99.90;;;;;;5093891;28;20853;-43
2024/01/20 07:09:40;;;;;;;14.10;8.33;;;-9.10;99.90;;;;;;5093529;28;20492;-43
2024/01/20 07:12:07;;;;;;;12.87;7.20;;;-9.20;99.90;;;;;;5092558;28;20207;-43
2024/01/20 07:14:35;;;;;;;14.40;7.97;;;-9.20;99.90;;;;;;5094242;28;20433;-43
2024/01/20 07:17:05;;;;;;;14.10;7.67;;;-9.30;99.90;;;;;;5092093;28;20864;-44
2024/01/20 07:19:31;;;;;;;15.67;8.23;;;-9.30;99.90;;;;;;5093645;28;20421;-43
2024/01/20 07:21:57;;;;;;;19.60;9.83;;;-9.40;99.90;;;;;;5092065;28;20481;-45
2024/01/20 07:24:22;;;;;;;21.33;10.60;;;-9.50;99.90;;;;;;5093651;28;20186;-48
2024/01/20 07:26:48;;;;;;;23.67;11.23;;;-9.50;99.90;;;;;;5093240;28;20208;-47
2024/01/20 07:29:14;;;;;;;22.17;11.87;;;-9.60;99.90;;;;;;5093452;28;20251;-48
2024/01/20 07:31:43;;;;;;;22.70;10.63;;;-9.50;99.90;;;;;;5092282;28;20220;-47
2024/01/20 07:34:08;;;;;;;18.43;10.03;;;-9.60;99.90;;;;;;5092368;28;20188;-47
2024/01/20 07:36:35;;;;;;;17.63;9.63;;;-9.60;99.90;;;;;;5093449;28;20433;-48
2024/01/20 07:39:02;;;;;;;18.57;9.47;;;-9.60;99.90;;;;;;5092215;28;20266;-47
2024/01/20 07:41:28;;;;;;;15.40;8.37;;;-9.60;99.90;;;;;;5093523;28;20783;-46
2024/01/20 07:43:54;;;;;;;14.63;8.70;;;-9.70;99.90;;;;;;5092331;28;20409;-49
2024/01/20 07:46:20;;;;;;;15.30;9.03;;;-9.70;99.90;;;;;;5092142;28;20552;-46
2024/01/20 07:48:46;;;;;;;16.17;8.53;;;-9.70;99.90;;;;;;5093163;28;20206;-47
2024/01/20 07:51:11;;;;;;;18.30;10.37;;;-9.70;99.90;;;;;;5092490;28;20186;-47
2024/01/20 07:53:38;;;;;;;22.37;10.50;;;-9.70;99.90;;;;;;5075221;28;20202;-46
2024/01/20 07:56:09;;;;;;;21.77;10.43;;;-9.70;99.90;;;;;;5092323;28;20224;-48
2024/01/20 07:58:35;;;;;;;22.83;11.33;;;-9.70;99.90;;;;;;5093970;28;20405;-47
2024/01/20 08:01:00;;;;;;;18.33;9.90;;;-9.80;99.90;;;;;;5092197;28;20410;-46
2024/01/20 08:03:27;;;;;;;20.43;10.80;;;-9.80;99.90;;;;;;5091930;28;20187;-47
2024/01/20 08:05:54;;;;;;;22.53;11.63;;;-9.80;99.90;;;;;;5092914;28;20496;-46
2024/01/20 08:09:12;;;;;;;21.47;10.93;;;-9.80;99.90;;;;;;5093047;28;20474;-48
2024/01/20 08:11:41;;;;;;;23.30;11.43;;;-9.80;99.90;;;;;;5092908;28;20409;-46
2024/01/20 08:14:08;;;;;;;20.53;11.10;;;-9.80;99.90;;;;;;5092905;28;20405;-47
2024/01/20 08:16:35;;;;;;;21.30;11.00;;;-9.70;99.90;;;;;;5093614;28;20429;-48
2024/01/20 08:19:04;;;;;;;24.30;11.20;;;-9.70;99.90;;;;;;5096765;28;20413;-46
2024/01/20 08:21:34;;;;;;;21.07;11.13;;;-9.70;99.90;;;;;;5096329;28;20924;-48
2024/01/20 08:24:00;;;;;;;20.27;10.63;;;-9.70;99.90;;;;;;5096318;28;20421;-46
2024/01/20 08:26:26;;;;;;;22.10;11.77;;;-9.70;99.90;;;;;;5096353;28;20482;-47
2024/01/20 08:28:51;;;;;;;25.03;12.23;;;-9.70;99.90;;;;;;5096278;28;20571;-48
2024/01/20 08:31:17;;;;;;;26.70;13.37;;;-9.60;99.90;;;;;;5096719;28;20541;-48
2024/01/20 08:33:43;;;;;;;27.40;13.47;;;-9.60;99.90;;;;;;5096210;28;20659;-48
2024/01/20 08:36:09;;;;;;;30.30;13.50;;;-9.60;99.90;;;;;;5096535;28;20203;-47
2024/01/20 08:38:41;;;;;;;23.03;11.60;;;-9.60;99.90;;;;;;5096080;28;20240;-46
2024/01/20 08:41:12;;;;;;;19.43;9.80;;;-9.60;99.90;;;;;;5095562;28;20417;-47
2024/01/20 08:43:44;;;;;;;15.73;9.30;;;-9.70;99.90;;;;;;5096259;28;20429;-46
2024/01/20 08:46:11;;;;;;;18.77;9.80;;;-9.80;99.90;;;;;;5094643;28;20453;-47
2024/01/20 08:48:37;;;;;;;16.97;9.37;;;-9.80;99.90;;;;;;5094873;28;20461;-46
2024/01/20 08:51:12;;;;;;;18.83;10.43;;;-9.80;99.90;;;;;;5077812;28;20489;-47
2024/01/20 08:53:43;;;;;;;14.93;8.97;;;-9.80;99.90;;;;;;5094662;28;20205;-47
2024/01/20 08:56:09;;;;;;;15.13;9.37;;;-9.80;99.90;;;;;;5095838;28;20431;-48
2024/01/20 08:58:35;;;;;;;15.37;9.60;;;-9.80;99.90;;;;;;5094709;28;20433;-47
2024/01/20 09:01:08;;;;;;;18.00;9.77;;;-9.70;99.90;;;;;;5095922;28;20208;-47
2024/01/20 09:03:34;;;;;;;19.57;10.10;;;-9.70;99.90;;;;;;5095864;28;20164;-47
2024/01/20 09:05:59;;;;;;;19.13;10.03;;;-9.60;99.90;;;;;;5077321;28;20800;-47
2024/01/20 09:08:28;;;;;;;19.60;10.67;;;-9.60;99.90;;;;;;5094390;28;20175;-48
2024/01/20 09:10:53;;;;;;;20.30;10.87;;;-9.50;99.90;;;;;;5096043;28;20258;-47
2024/01/20 09:13:19;;;;;;;21.47;11.83;;;-9.40;99.90;;;;;;5094097;28;20504;-47
2024/01/20 09:15:45;;;;;;;23.77;13.27;;;-9.40;99.90;;;;;;5094064;28;20198;-46
2024/01/20 09:18:11;;;;;;;17.10;9.90;;;-9.30;99.90;;;;;;5094321;28;20178;-47
2024/01/20 09:20:37;;;;;;;18.73;10.53;;;-9.20;99.90;;;;;;5095184;28;20405;-47
2024/01/20 09:23:03;;;;;;;22.20;10.57;;;-9.20;99.90;;;;;;5094747;28;20467;-47
2024/01/20 09:25:31;;;;;;;20.93;10.97;;;-9.20;99.90;;;;;;5095179;28;20265;-47
2024/01/20 09:28:00;;;;;;;22.33;11.90;;;-9.10;99.90;;;;;;5094672;28;20159;-46
2024/01/20 09:30:26;;;;;;;21.90;11.67;;;-9.00;99.90;;;;;;5095432;28;20452;-47
2024/01/20 09:32:52;;;;;;;21.87;11.73;;;-8.90;99.90;;;;;;5095159;28;20458;-47
2024/01/20 09:35:19;;;;;;;20.03;11.70;;;-8.80;99.90;;;;;;5093983;28;20434;-47
2024/01/20 09:37:45;;;;;;;19.83;12.13;;;-8.60;99.90;;;;;;5095335;28;20171;-47
2024/01/20 09:40:12;;;;;;;22.87;13.07;;;-8.50;99.90;;;;;;5095375;28;20877;-46
2024/01/20 09:42:38;;;;;;;23.10;12.27;;;-8.40;99.90;;;;;;5094337;28;20218;-43
2024/01/20 09:45:05;;;;;;;20.80;12.20;;;-8.20;99.90;;;;;;5094925;28;20447;-43
2024/01/20 09:47:31;;;;;;;24.90;12.13;;;-8.10;99.90;;;;;;5093430;28;20413;-42
2024/01/20 09:49:56;;;;;;;21.83;12.00;;;-8.00;99.90;;;;;;5094623;28;20939;-43
2024/01/20 09:52:31;;;;;;;21.23;10.97;;;-7.90;99.90;;;;;;5095169;28;20564;-42
2024/01/20 09:55:18;;;;;;;23.93;11.33;;;-7.80;99.90;;;;;;5094722;28;20241;-44
2024/01/20 09:57:55;;;;;;;27.60;11.70;;;-7.70;99.90;;;;;;5094516;28;20893;-44
2024/01/20 10:00:24;;;;;;;19.53;10.20;;;-7.50;99.90;;;;;;5094429;28;20417;-43
2024/01/20 10:02:50;;;;;;;21.67;9.93;;;-7.30;99.90;;;;;;5093455;28;20428;-45
2024/01/20 10:05:16;;;;;;;19.97;10.67;;;-7.20;99.90;;;;;;5092916;28;20972;-44
2024/01/20 10:07:45;;;;;;;23.37;11.57;;;-7.00;99.90;;;;;;5094487;28;20190;-47
2024/01/20 10:10:21;;;;;;;21.50;9.83;;;-7.00;99.90;;;;;;5094175;28;20448;-45
2024/01/20 10:12:49;;;;;;;25.13;10.27;;;-6.90;99.90;;;;;;5094379;28;20417;-43
2024/01/20 10:15:19;;;;;;;16.37;9.37;;;-6.80;99.90;;;;;;5094211;28;20469;-44
2024/01/20 10:17:44;;;;;;;23.50;10.90;;;-6.60;99.90;;;;;;5092878;28;20502;-43
2024/01/20 10:20:33;;;;;;;18.03;9.87;;;-6.50;99.90;;;;;;5094036;28;20451;-43
2024/01/20 10:23:04;;;;;;;17.33;9.23;;;-6.40;99.90;;;;;;5094051;28;20174;-44
2024/01/20 10:25:31;;;;;;;18.07;8.27;;;-6.30;99.90;;;;;;5094142;28;20828;-44
2024/01/20 10:27:56;;;;;;;17.83;8.97;;;-6.20;99.90;;;;;;5093928;28;20421;-45
2024/01/20 10:30:23;;;;;;;16.40;9.23;;;-6.10;99.90;;;;;;5093821;28;20458;-45
2024/01/20 10:32:49;;;;;;;18.10;9.07;;;-6.10;99.90;;;;;;5094211;28;20156;-42
2024/01/20 10:35:14;;;;;;;18.33;9.63;;;-6.00;99.90;;;;;;5093798;28;20957;-43
2024/01/20 10:37:45;;;;;;;15.77;8.43;;;-5.90;99.90;;;;;;5093828;28;20173;-44
2024/01/20 10:40:13;;;;;;;18.10;8.53;;;-5.80;99.90;;;;;;5093333;28;20166;-43
2024/01/20 10:42:45;;;;;;;14.47;7.83;;;-5.70;99.90;;;;;;5093718;28;20423;-42
2024/01/20 10:45:19;;;;;;;16.10;8.40;;;-5.70;99.90;;;;;;5093922;28;20777;-44
2024/01/20 10:47:58;;;;;;;19.00;9.00;;;-5.60;99.90;;;;;;5093665;28;20405;-43
2024/01/20 10:50:25;;;;;;;14.43;8.50;;;-5.50;99.90;;;;;;5093856;28;20464;-44
2024/01/20 10:52:52;;;;;;;18.80;9.20;;;-5.40;99.90;;;;;;5093903;28;20475;-45
2024/01/20 10:55:19;;;;;;;12.90;8.17;;;-5.30;99.90;;;;;;5093615;28;20935;-42
2024/01/20 10:57:49;;;;;;;18.50;8.37;;;-5.20;99.90;;;;;;5092451;28;20414;-42
2024/01/20 11:00:17;;;;;;;16.63;7.93;;;-5.20;99.90;;;;;;5093589;28;20417;-44
2024/01/20 11:02:44;;;;;;;13.30;7.03;;;-5.10;99.90;;;;;;5093900;28;20423;-43
2024/01/20 11:05:21;;;;;;;16.40;8.20;;;-5.00;99.90;;;;;;5093444;28;20480;-43
2024/01/20 11:08:23;;;;;;;11.57;6.57;;;-5.00;99.90;;;;;;5093413;28;20508;-42
2024/01/20 11:10:52;;;;;;;13.10;7.17;;;-4.90;99.90;;;;;;5092331;28;20431;-42
2024/01/20 11:13:17;;;;;;;12.60;6.60;;;-4.90;99.90;;;;;;5094055;28;20419;-45
2024/01/20 11:15:49;;;;;;;10.93;6.00;;;-4.80;99.90;;;;;;5093332;28;20427;-44
2024/01/20 11:18:25;;;;;;;11.90;7.03;;;-4.70;99.90;;;;;;5091680;28;20194;-44
2024/01/20 11:21:06;;;;;;;15.27;7.50;;;-4.60;99.90;;;;;;5093901;28;20398;-42
2024/01/20 11:23:32;;;;;;;14.37;7.90;;;-4.50;99.90;;;;;;5092418;28;20416;-43
2024/01/20 11:26:09;;;;;;;12.97;7.80;;;-4.50;99.90;;;;;;5093636;28;20446;-44
2024/01/20 11:28:35;;;;;;;15.13;7.83;;;-4.50;99.90;;;;;;5092606;28;20461;-45
2024/01/20 11:31:04;;;;;;;15.57;7.37;;;-4.40;99.90;;;;;;5092081;28;20412;-44
2024/01/20 11:33:31;;;;;;;11.90;7.43;;;-4.30;99.90;;;;;;5093132;28;20502;-43
2024/01/20 11:35:56;;;;;;;10.53;6.80;;;-4.30;99.90;;;;;;5093186;28;20466;-44
2024/01/20 11:38:23;;;;;;;12.93;8.07;;;-4.10;99.90;;;;;;5093479;28;20410;-42
2024/01/20 11:41:01;;;;;;;18.07;7.53;;;-4.10;99.90;;;;;;5092498;28;20425;-44
2024/01/20 11:43:27;;;;;;;17.77;8.30;;;-4.00;99.90;;;;;;5093457;28;20186;-44
2024/01/20 11:45:56;;;;;;;20.87;8.07;;;-3.90;99.90;;;;;;5093522;28;20435;-43
2024/01/20 11:48:25;;;;;;;16.33;7.60;;;-3.80;99.90;;;;;;5091859;28;20193;-42
2024/01/20 11:50:54;;;;;;;14.73;7.57;;;-3.80;99.90;;;;;;5094479;28;20389;-44
2024/01/20 11:53:20;;;;;;;15.17;7.73;;;-3.70;99.90;;;;;;5097139;28;20409;-43
2024/01/20 11:55:58;;;;;;;16.43;8.37;;;-3.70;99.90;;;;;;5095983;28;20439;-42
2024/01/20 11:58:26;;;;;;;14.57;7.57;;;-3.60;99.90;;;;;;5096936;28;20163;-45
2024/01/20 12:00:53;;;;;;;11.70;6.37;;;-3.60;99.90;;;;;;5097248;28;20393;-43
2024/01/20 12:03:20;;;;;;;15.63;7.03;;;-3.50;99.90;;;;;;5097280;28;20436;-45
2024/01/20 12:05:46;;;;;;;10.23;6.50;;;-3.50;99.90;;;;;;5096665;28;20577;-43
2024/01/20 12:08:14;;;;;;;12.47;6.67;;;-3.40;99.90;;;;;;5095457;28;20515;-44
2024/01/20 12:10:49;;;;;;;11.97;7.07;;;-3.40;99.90;;;;;;5078516;28;20190;-44
2024/01/20 12:13:14;;;;;;;12.07;7.33;;;-3.40;99.90;;;;;;5095469;28;20396;-42
2024/01/20 12:15:42;;;;;;;13.67;6.83;;;-3.30;99.90;;;;;;5096775;28;20421;-43
2024/01/20 12:18:11;;;;;;;15.40;6.80;;;-3.20;99.90;;;;;;5096086;28;20170;-43
2024/01/20 12:20:37;;;;;;;10.83;6.53;;;-3.20;99.90;;;;;;5096356;28;20900;-42
2024/01/20 12:23:03;;;;;;;11.20;6.50;;;-3.20;99.90;;;;;;5095624;28;20436;-43
2024/01/20 12:25:29;;;;;;;13.07;6.80;;;-3.00;99.90;;;;;;5096305;28;20857;-44
2024/01/20 12:27:58;;;;;;;11.23;6.80;;;-3.00;99.90;;;;;;5096228;28;20269;-44
2024/01/20 12:30:26;;;;;;;15.23;7.07;;;-2.90;99.90;;;;;;5096166;28;20456;-43
2024/01/20 12:32:52;;;;;;;11.13;6.90;;;-2.90;99.90;;;;;;5096127;28;20418;-45
2024/01/20 12:35:19;;;;;;;10.47;6.60;;;-2.90;99.90;;;;;;5096032;28;20448;-43